createdAt,value
2023-01-04T00:01:40.683Z,101069.13
2023-01-04T00:04:24.677Z,101072.06
2023-01-04T00:07:08.442Z,101076.59
2023-01-04T00:09:53.574Z,101069.97
2023-01-04T00:12:37.477Z,101070.25
2023-01-04T00:15:21.403Z,101074.78
2023-01-04T00:18:05.487Z,101076.44
2023-01-04T00:20:49.245Z,101077.97
2023-01-04T00:23:33.020Z,101074.72
2023-01-04T00:26:20.270Z,101082.47
2023-01-04T00:29:06.709Z,101100.44
2023-01-04T00:31:51.074Z,101088.41
2023-01-04T00:34:35.138Z,101091.47
2023-01-04T00:37:18.901Z,101091.13
2023-01-04T00:40:02.788Z,101069.31
2023-01-04T00:42:48.985Z,101092.03
2023-01-04T00:45:32.932Z,101087.66
2023-01-04T00:48:16.744Z,101084.72
2023-01-04T00:51:01.077Z,101084.66
2023-01-04T00:53:44.872Z,101089.16
2023-01-04T00:56:29.618Z,101069.41
2023-01-04T00:59:16.701Z,101069.69
2023-01-04T01:02:00.560Z,101054.59
2023-01-04T01:04:44.530Z,101093.13
2023-01-04T01:07:28.392Z,101098.47
2023-01-04T01:10:12.161Z,101040.94
2023-01-04T01:12:56.200Z,101098.44
2023-01-04T01:15:41.524Z,100981.03
2023-01-04T01:18:25.326Z,101096.38
2023-01-04T01:21:10.949Z,101093.69
2023-01-04T01:23:56.710Z,101092.22
2023-01-04T01:26:40.809Z,101091.38
2023-01-04T01:29:25.050Z,101096.09
2023-01-04T01:32:10.722Z,100963.75
2023-01-04T01:34:54.551Z,101091.56
2023-01-04T01:37:38.319Z,101088.38
2023-01-04T01:40:22.557Z,101094.03
2023-01-04T01:43:10.790Z,101066.34
2023-01-04T01:45:58.257Z,101083.06
2023-01-04T01:48:43.856Z,101098.56
2023-01-04T01:51:28.679Z,101096.53
2023-01-04T01:54:17.660Z,101106.56
2023-01-04T01:57:04.407Z,101089.13
2023-01-04T01:59:51.563Z,101095.94
2023-01-04T02:02:36.050Z,101097.84
2023-01-04T02:05:22.605Z,101096.06
2023-01-04T02:08:07.564Z,101080.59
2023-01-04T02:10:51.975Z,101093.03
2023-01-04T02:13:55.477Z,101098.97
2023-01-04T02:17:10.492Z,101097.41
2023-01-04T02:20:16.231Z,101087.72
2023-01-04T02:23:35.521Z,101074.84
2023-01-04T02:26:55.162Z,101088.75
2023-01-04T02:30:29.641Z,101071.56
2023-01-04T02:33:34.577Z,101095.63
2023-01-04T02:36:27.070Z,101101.63
2023-01-04T02:39:20.184Z,101089.47
2023-01-04T02:42:14.163Z,101097.31
2023-01-04T02:45:04.582Z,101095.63
2023-01-04T02:48:06.727Z,101057.75
2023-01-04T02:50:56.140Z,101088.56
2023-01-04T02:53:44.965Z,101092.81
2023-01-04T02:56:38.857Z,101070.03
2023-01-04T02:59:48.007Z,101091.56
2023-01-04T03:03:08.262Z,101099.53
2023-01-04T03:06:18.831Z,101096.09
2023-01-04T03:09:06.881Z,101091.66
2023-01-04T03:12:14.121Z,101062.97
2023-01-04T03:15:02.703Z,101101.28
2023-01-04T03:17:52.213Z,101087.38
2023-01-04T03:20:35.959Z,101097.66
2023-01-04T03:23:43.074Z,101085.16
2023-01-04T03:26:48.122Z,101083.31
2023-01-04T03:29:55.532Z,101102.56
2023-01-04T03:33:05.482Z,101108.59
2023-01-04T03:35:55.221Z,101122.66
2023-01-04T03:39:04.105Z,101106.09
2023-01-04T03:42:09.133Z,101117.75
2023-01-04T03:45:18.889Z,101129.44
2023-01-04T03:48:29.193Z,101081.53
2023-01-04T03:51:17.348Z,101126.72
2023-01-04T03:54:13.953Z,101123.28
2023-01-04T03:56:59.011Z,101122.53
2023-01-04T03:59:47.177Z,101122.88
2023-01-04T04:02:32.411Z,101121.00
2023-01-04T04:05:37.808Z,101126.16
2023-01-04T04:08:30.838Z,101056.69
2023-01-04T04:11:29.869Z,101121.47
2023-01-04T04:14:13.741Z,101126.66
2023-01-04T04:16:57.618Z,101117.00
2023-01-04T04:19:41.593Z,101122.09
2023-01-04T04:22:25.381Z,101136.84
2023-01-04T04:25:09.939Z,101129.31
2023-01-04T04:27:55.227Z,101131.78
2023-01-04T04:30:40.866Z,101154.84
2023-01-04T04:33:24.934Z,101156.44
2023-01-04T04:36:09.710Z,101152.44
2023-01-04T04:38:53.615Z,101149.22
2023-01-04T04:41:39.343Z,101160.44
2023-01-04T04:44:25.152Z,101154.91
2023-01-04T04:47:09.086Z,101143.63
2023-01-04T04:49:52.896Z,101140.94
2023-01-04T04:52:36.766Z,101174.25
2023-01-04T04:55:20.711Z,101174.78
2023-01-04T04:58:04.480Z,101130.84
2023-01-04T05:00:49.868Z,101179.34
2023-01-04T05:03:34.388Z,101168.06
2023-01-04T05:06:18.303Z,101180.91
2023-01-04T05:09:02.247Z,101177.03
2023-01-04T05:12:03.607Z,101185.50
2023-01-04T05:14:47.486Z,101185.25
2023-01-04T05:17:32.770Z,101187.75
2023-01-04T05:20:16.688Z,101180.34
2023-01-04T05:23:00.553Z,101180.66
2023-01-04T05:25:44.293Z,101144.56
2023-01-04T05:28:28.528Z,101183.50
2023-01-04T05:31:11.404Z,101147.34
2023-01-04T05:33:56.679Z,101162.22
2023-01-04T05:36:40.509Z,101150.06
2023-01-04T05:39:24.415Z,101175.34
2023-01-04T05:42:26.422Z,101179.44
2023-01-04T05:45:11.348Z,101169.81
2023-01-04T05:47:55.851Z,101188.25
2023-01-04T05:50:41.037Z,101188.50
2023-01-04T05:53:27.230Z,101191.13
2023-01-04T05:56:11.037Z,101187.63
2023-01-04T05:58:54.791Z,101177.78
2023-01-04T06:01:38.594Z,101184.03
2023-01-04T06:04:22.518Z,101197.94
2023-01-04T06:07:07.771Z,101200.28
2023-01-04T06:09:51.709Z,101161.44
2023-01-04T06:12:35.579Z,101219.66
2023-01-04T06:15:19.378Z,101219.78
2023-01-04T06:18:03.881Z,101228.00
2023-01-04T06:20:52.264Z,101225.31
2023-01-04T06:23:37.426Z,101239.44
2023-01-04T06:26:22.031Z,101236.22
2023-01-04T06:29:06.141Z,101251.41
2023-01-04T06:31:49.875Z,101244.66
2023-01-04T06:34:34.035Z,101238.38
2023-01-04T06:37:18.024Z,101202.03
2023-01-04T06:40:03.472Z,101249.28
2023-01-04T06:42:47.352Z,101249.38
2023-01-04T06:45:31.114Z,101256.03
2023-01-04T06:48:18.339Z,101256.09
2023-01-04T06:51:02.657Z,101259.06
2023-01-04T06:53:46.546Z,101270.56
2023-01-04T06:56:32.379Z,101262.00
2023-01-04T06:59:16.179Z,101277.41
2023-01-04T07:02:00.183Z,101273.56
2023-01-04T07:04:44.558Z,101280.09
2023-01-04T07:07:28.526Z,101237.53
2023-01-04T07:10:12.583Z,101273.34
2023-01-04T07:12:58.027Z,101237.16
2023-01-04T07:15:42.147Z,101283.25
2023-01-04T07:18:25.922Z,101287.84
2023-01-04T07:21:09.630Z,101289.59
2023-01-04T07:23:53.378Z,101281.84
2023-01-04T07:26:37.241Z,101272.47
2023-01-04T07:29:22.809Z,101287.66
2023-01-04T07:32:10.299Z,101290.75
2023-01-04T07:34:57.416Z,101291.66
2023-01-04T07:37:41.330Z,101289.84
2023-01-04T07:40:25.214Z,101309.03
2023-01-04T07:43:09.853Z,101310.56
2023-01-04T07:45:55.069Z,101298.53
2023-01-04T07:48:38.858Z,101310.03
2023-01-04T07:51:22.667Z,101315.34
2023-01-04T07:54:06.497Z,101308.94
2023-01-04T07:56:50.236Z,101316.25
2023-01-04T07:59:33.968Z,101319.06
2023-01-04T08:02:19.298Z,101314.34
2023-01-04T08:05:03.257Z,101326.16
2023-01-04T08:07:47.162Z,101326.44
2023-01-04T08:10:30.999Z,101319.78
2023-01-04T08:13:14.851Z,101314.16
2023-01-04T08:15:58.649Z,101311.34
2023-01-04T08:18:43.792Z,101312.78
2023-01-04T08:21:29.743Z,101323.53
2023-01-04T08:24:15.336Z,101301.19
2023-01-04T08:26:59.541Z,101313.34
2023-01-04T08:29:43.309Z,101302.13
2023-01-04T08:32:27.331Z,101321.84
2023-01-04T08:35:12.513Z,101334.09
2023-01-04T08:38:13.139Z,101332.88
2023-01-04T08:41:07.286Z,101314.72
2023-01-04T08:44:03.926Z,101335.19
2023-01-04T08:46:48.313Z,101333.72
2023-01-04T08:49:32.244Z,101284.81
2023-01-04T08:52:17.537Z,101339.28
2023-01-04T08:55:04.378Z,101311.28
2023-01-04T08:57:50.752Z,101344.97
2023-01-04T09:00:34.527Z,101337.63
2023-01-04T09:03:18.538Z,101303.78
2023-01-04T09:06:06.577Z,101321.84
2023-01-04T09:08:52.780Z,101331.81
2023-01-04T09:11:38.778Z,101336.75
2023-01-04T09:14:22.699Z,101315.78
2023-01-04T09:17:06.589Z,101325.66
2023-01-04T09:19:50.441Z,101331.81
2023-01-04T09:22:34.258Z,101313.56
2023-01-04T09:25:19.553Z,101325.81
2023-01-04T09:28:03.400Z,101320.28
2023-01-04T09:30:47.318Z,101286.47
2023-01-04T09:34:03.495Z,101316.25
2023-01-04T09:36:35.112Z,101298.88
2023-01-04T09:39:22.916Z,101313.13
2023-01-04T09:42:18.179Z,101314.06
2023-01-04T09:45:23.953Z,101321.88
2023-01-04T09:48:16.160Z,101323.44
2023-01-04T09:51:06.608Z,101328.03
2023-01-04T09:53:55.304Z,101328.66
2023-01-04T09:56:39.201Z,101323.38
2023-01-04T09:59:30.301Z,101325.03
2023-01-04T10:02:22.638Z,101315.59
2023-01-04T10:05:08.230Z,101318.53
2023-01-04T10:07:52.029Z,101308.22
2023-01-04T10:10:49.541Z,101297.00
2023-01-04T10:13:49.931Z,101253.75
2023-01-04T10:23:33.575Z,101298.41
2023-01-04T10:26:21.478Z,101292.13
2023-01-04T10:29:37.168Z,101312.94
2023-01-04T10:32:33.628Z,101287.47
2023-01-04T10:35:21.637Z,101291.94
2023-01-04T10:38:16.574Z,101312.16
2023-01-04T10:41:07.169Z,101308.44
2023-01-04T10:44:10.529Z,101313.56
2023-01-04T10:47:08.588Z,101305.66
2023-01-04T10:49:58.829Z,101317.16
2023-01-04T10:52:48.481Z,101304.44
2023-01-04T10:55:38.522Z,101292.88
2023-01-04T10:58:30.407Z,101317.53
2023-01-04T11:01:20.001Z,101316.03
2023-01-04T11:04:11.361Z,101317.69
2023-01-04T11:07:03.466Z,101308.69
2023-01-04T11:09:53.391Z,101318.34
2023-01-04T11:12:37.290Z,101270.16
2023-01-04T11:15:21.384Z,101315.47
2023-01-04T11:18:08.968Z,101315.88
2023-01-04T11:20:54.286Z,101309.69
2023-01-04T11:23:39.743Z,101311.06
2023-01-04T11:26:30.236Z,101316.25
2023-01-04T11:29:31.135Z,101316.84
2023-01-04T11:32:19.667Z,101281.59
2023-01-04T11:35:03.687Z,101315.47
2023-01-04T11:37:47.552Z,101308.09
2023-01-04T11:40:33.454Z,101302.94
2023-01-04T11:43:19.916Z,101305.69
2023-01-04T11:46:06.096Z,101297.25
2023-01-04T11:48:50.145Z,101253.84
2023-01-04T11:51:43.140Z,101281.81
2023-01-04T11:54:26.934Z,101296.03
2023-01-04T11:57:20.480Z,101302.06
2023-01-04T12:00:12.293Z,101303.75
2023-01-04T12:03:12.279Z,101310.34
2023-01-04T12:05:56.570Z,101313.75
2023-01-04T12:08:41.893Z,101300.63
2023-01-04T12:11:30.867Z,101297.06
2023-01-04T12:14:24.961Z,101303.50
2023-01-04T12:17:16.687Z,101278.78
2023-01-04T12:20:04.883Z,101291.78
2023-01-04T12:22:48.897Z,101299.09
2023-01-04T12:25:36.575Z,101303.25
2023-01-04T12:28:32.294Z,101293.53
2023-01-04T12:31:34.323Z,101291.84
2023-01-04T12:34:40.818Z,101304.38
2023-01-04T12:37:49.529Z,101303.56
2023-01-04T12:40:56.421Z,101315.59
2023-01-04T12:43:46.555Z,101283.72
2023-01-04T12:47:01.799Z,101313.50
2023-01-04T12:49:52.819Z,101306.03
2023-01-04T12:55:57.052Z,101306.94
2023-01-04T13:02:16.737Z,101312.03
2023-01-04T13:05:53.385Z,101314.75
2023-01-04T13:08:12.097Z,101300.44
2023-01-04T13:10:57.879Z,101295.91
2023-01-04T13:13:50.699Z,101259.72
2023-01-04T13:16:42.507Z,101302.81
2023-01-04T13:19:29.377Z,101291.06
2023-01-04T13:22:28.321Z,101280.59
2023-01-04T13:25:16.499Z,101305.56
2023-01-04T13:28:02.473Z,101261.00
2023-01-04T13:30:48.030Z,101300.03
2023-01-04T13:33:32.518Z,101286.97
2023-01-04T13:36:17.917Z,101263.31
2023-01-04T13:39:02.207Z,101257.00
2023-01-04T13:41:47.101Z,101298.94
2023-01-04T13:45:21.124Z,101256.31
2023-01-04T13:48:12.324Z,101276.91
2023-01-04T13:51:04.618Z,101307.50
2023-01-04T13:54:00.417Z,101314.31
2023-01-04T13:56:47.166Z,101312.72
2023-01-04T13:59:35.801Z,101302.91
2023-01-04T14:02:22.745Z,101292.59
2023-01-04T14:05:08.143Z,101276.84
2023-01-04T14:07:52.147Z,101291.56
2023-01-04T14:10:39.612Z,101302.22
2023-01-04T14:13:23.704Z,101286.28
2023-01-04T14:16:14.200Z,101317.28
2023-01-04T14:18:58.143Z,101319.03
2023-01-04T14:21:42.094Z,101285.44
2023-01-04T14:27:41.495Z,101235.88
2023-01-04T14:30:26.501Z,101321.13
2023-01-04T14:33:18.622Z,101286.22
2023-01-04T14:36:05.106Z,101321.59
2023-01-04T14:39:09.840Z,101295.47
2023-01-04T14:41:57.722Z,101345.63
2023-01-04T14:44:43.197Z,101300.06
2023-01-04T14:47:27.053Z,101336.84
2023-01-04T14:50:11.598Z,101291.16
2023-01-04T14:52:55.932Z,101332.59
2023-01-04T14:55:40.703Z,101306.34
2023-01-04T14:58:24.706Z,101333.72
2023-01-04T15:01:11.156Z,101341.03
2023-01-04T15:03:55.344Z,101331.00
2023-01-04T15:06:49.108Z,101340.97
2023-01-04T15:09:33.275Z,101291.63
2023-01-04T15:12:17.048Z,101338.19
2023-01-04T15:15:00.851Z,101342.28
2023-01-04T15:17:48.025Z,101346.66
2023-01-04T15:20:31.798Z,101342.31
2023-01-04T15:23:15.622Z,101341.75
2023-01-04T15:26:01.898Z,101348.09
2023-01-04T15:28:45.836Z,101347.38
2023-01-04T15:31:36.714Z,101350.53
2023-01-04T15:34:24.028Z,101344.03
2023-01-04T15:37:08.063Z,101325.28
2023-01-04T15:39:56.708Z,101354.84
2023-01-04T15:43:02.829Z,101358.03
2023-01-04T15:45:46.975Z,101357.22
2023-01-04T15:48:30.831Z,101355.66
2023-01-04T15:51:16.072Z,101366.41
2023-01-04T15:53:59.885Z,101361.09
2023-01-04T15:56:43.801Z,101347.41
2023-01-04T15:59:27.508Z,101358.22
2023-01-04T16:02:12.558Z,101359.72
2023-01-04T16:04:56.446Z,101371.22
2023-01-04T16:07:41.744Z,101365.13
2023-01-04T16:10:25.642Z,101361.78
2023-01-04T16:13:09.521Z,101365.72
2023-01-04T16:15:53.401Z,101372.31
2023-01-04T16:18:37.639Z,101371.00
2023-01-04T16:21:24.897Z,101371.38
2023-01-04T16:24:37.055Z,101369.78
2023-01-04T16:27:15.950Z,101373.59
2023-01-04T16:29:59.940Z,101377.75
2023-01-04T16:32:45.816Z,101382.34
2023-01-04T16:35:29.748Z,101384.78
2023-01-04T16:38:13.565Z,101387.31
2023-01-04T16:41:01.110Z,101335.47
2023-01-04T16:43:46.576Z,101383.38
2023-01-04T16:46:32.200Z,101356.69
2023-01-04T16:49:18.050Z,101383.38
2023-01-04T16:52:02.127Z,101341.88
2023-01-04T16:54:46.225Z,101380.09
2023-01-04T16:57:31.704Z,101335.00
2023-01-04T17:00:18.631Z,101340.38
2023-01-04T17:03:02.721Z,101381.63
2023-01-04T17:05:46.665Z,101377.53
2023-01-04T17:08:30.753Z,101370.28
2023-01-04T17:14:22.169Z,101382.63
2023-01-04T17:17:05.877Z,101381.44
2023-01-04T17:19:49.709Z,101376.38
2023-01-04T17:22:34.896Z,101380.84
2023-01-04T17:25:19.072Z,101378.16
2023-01-04T17:28:02.871Z,101380.03
2023-01-04T17:30:48.400Z,101375.19
2023-01-04T17:33:32.364Z,101377.88
2023-01-04T17:36:17.795Z,101373.88
2023-01-04T17:39:02.397Z,101377.09
2023-01-04T17:41:46.259Z,101372.47
2023-01-04T17:44:30.105Z,101370.88
2023-01-04T17:47:15.345Z,101355.84
2023-01-04T17:49:59.079Z,101355.78
2023-01-04T17:52:42.802Z,101361.28
2023-01-04T17:55:26.598Z,101364.94
2023-01-04T17:58:12.517Z,101364.94
2023-01-04T18:00:57.899Z,101356.94
2023-01-04T18:03:46.492Z,101365.16
2023-01-04T18:06:33.096Z,101355.56
2023-01-04T18:09:20.236Z,101344.66
2023-01-04T18:12:06.552Z,101354.88
2023-01-04T18:14:50.453Z,101361.94
2023-01-04T18:17:36.318Z,101360.22
2023-01-04T18:20:24.912Z,101346.81
2023-01-04T18:23:09.414Z,101351.03
2023-01-04T18:25:53.226Z,101353.75
2023-01-04T18:28:37.158Z,101356.50
2023-01-04T18:31:23.063Z,101341.22
2023-01-04T18:34:06.908Z,101339.75
2023-01-04T18:36:52.285Z,101349.41
2023-01-04T18:39:36.365Z,101339.09
2023-01-04T18:42:20.396Z,101341.81
2023-01-04T18:45:04.303Z,101345.59
2023-01-04T18:47:48.462Z,101344.13
2023-01-04T18:50:35.103Z,101315.41
2023-01-04T18:53:20.847Z,101345.84
2023-01-04T18:56:06.515Z,101342.81
2023-01-04T18:58:51.784Z,101333.19
2023-01-04T19:01:36.245Z,101344.22
2023-01-04T19:04:21.335Z,101345.25
2023-01-04T19:07:05.515Z,101344.69
2023-01-04T19:10:07.596Z,101341.22
2023-01-04T19:12:51.305Z,101288.31
2023-01-04T19:15:35.191Z,101333.13
2023-01-04T19:18:18.979Z,101323.22
2023-01-04T19:21:03.343Z,101326.75
2023-01-04T19:23:48.073Z,101329.03
2023-01-04T19:26:33.440Z,101320.38
2023-01-04T19:29:17.237Z,101296.88
2023-01-04T19:32:01.057Z,101324.78
2023-01-04T19:34:45.040Z,101305.00
2023-01-04T19:37:29.534Z,101319.13
2023-01-04T19:40:13.537Z,101319.56
2023-01-04T19:42:58.789Z,101306.16
2023-01-04T19:45:43.122Z,101306.66
2023-01-04T19:48:26.982Z,101173.31
2023-01-04T19:51:12.664Z,101302.66
2023-01-04T19:53:57.029Z,101290.47
2023-01-04T19:56:41.032Z,101297.38
2023-01-04T19:59:26.336Z,101306.00
2023-01-04T20:02:12.215Z,101297.25
2023-01-04T20:04:56.362Z,101300.63
2023-01-04T20:07:40.428Z,101304.75
2023-01-04T20:10:24.307Z,101301.16
2023-01-04T20:13:08.081Z,101308.72
2023-01-04T20:15:53.837Z,101306.56
2023-01-04T20:18:38.904Z,101307.41
2023-01-04T20:21:22.847Z,101306.06
2023-01-04T20:24:07.336Z,101300.25
2023-01-04T20:26:51.203Z,101291.75
2023-01-04T20:29:35.426Z,101304.13
2023-01-04T20:32:20.685Z,101304.84
2023-01-04T20:35:04.533Z,101295.97
2023-01-04T20:37:49.231Z,101302.03
2023-01-04T20:40:33.075Z,101288.72
2023-01-04T20:43:34.826Z,101293.19
2023-01-04T20:46:21.022Z,101288.56
2023-01-04T20:49:06.646Z,101280.38
2023-01-04T20:51:50.560Z,101281.16
2023-01-04T20:54:34.383Z,101286.84
2023-01-04T20:57:18.319Z,101286.22
2023-01-04T21:00:02.154Z,101283.50
2023-01-04T21:02:48.650Z,101276.41
2023-01-04T21:05:37.046Z,101261.28
2023-01-04T21:08:20.843Z,101279.13
2023-01-04T21:11:04.978Z,101273.94
2023-01-04T21:13:50.451Z,101274.63
2023-01-04T21:16:34.347Z,101278.88
2023-01-04T21:19:18.059Z,101274.69
2023-01-04T21:22:04.250Z,101279.84
2023-01-04T21:24:48.100Z,101247.50
2023-01-04T21:27:31.960Z,101270.66
2023-01-04T21:30:15.930Z,101267.41
2023-01-04T21:33:01.871Z,101259.03
2023-01-04T21:35:46.100Z,101261.72
2023-01-04T21:38:31.359Z,101255.41
2023-01-04T21:41:16.493Z,101253.50
2023-01-04T21:44:00.298Z,101248.22
2023-01-04T21:46:44.176Z,101242.88
2023-01-04T21:49:27.965Z,101237.44
2023-01-04T21:52:12.076Z,101237.22
2023-01-04T21:54:57.285Z,101224.09
2023-01-04T21:57:41.131Z,101233.03
2023-01-04T22:00:25.077Z,101221.59
2023-01-04T22:03:08.954Z,101204.03
2023-01-04T22:05:52.838Z,101210.94
2023-01-04T22:08:37.030Z,101203.22
2023-01-04T22:11:22.306Z,101208.19
2023-01-04T22:14:06.192Z,101196.31
2023-01-04T22:16:49.946Z,101194.88
2023-01-04T22:19:33.767Z,101198.09
2023-01-04T22:22:17.546Z,101175.56
2023-01-04T22:25:01.467Z,101184.72
2023-01-04T22:27:52.287Z,101184.63
2023-01-04T22:30:36.097Z,101182.63
2023-01-04T22:33:20.127Z,101187.97
2023-01-04T22:36:08.202Z,101171.22
2023-01-04T22:38:52.880Z,101164.38
2023-01-04T22:41:36.753Z,101161.56
2023-01-04T22:44:22.211Z,101164.44
2023-01-04T22:47:06.334Z,101164.16
2023-01-04T22:49:50.603Z,101128.06
2023-01-04T22:52:34.620Z,101097.78
2023-01-04T22:55:18.807Z,101129.22
2023-01-04T22:58:02.855Z,101146.28
2023-01-04T23:00:48.230Z,101142.00
2023-01-04T23:03:34.442Z,101139.47
2023-01-04T23:06:18.471Z,101121.41
2023-01-04T23:09:05.636Z,101129.00
2023-01-04T23:11:49.561Z,101102.53
2023-01-04T23:14:33.530Z,101140.44
2023-01-04T23:17:19.171Z,101096.47
2023-01-04T23:20:07.826Z,101092.75
2023-01-04T23:22:54.263Z,101121.88
2023-01-04T23:25:38.265Z,101120.91
2023-01-04T23:28:22.334Z,101106.16
2023-01-04T23:31:08.296Z,101026.66
2023-01-04T23:33:57.731Z,101117.25
2023-01-04T23:36:43.146Z,101101.22
2023-01-04T23:39:27.194Z,101060.03
2023-01-04T23:42:11.259Z,101096.16
2023-01-04T23:44:55.285Z,101096.19
2023-01-04T23:47:39.204Z,101050.69
2023-01-04T23:50:24.639Z,101050.44
2023-01-04T23:53:08.723Z,101042.84
2023-01-04T23:55:58.037Z,101094.88
2023-01-04T23:58:42.035Z,101098.81
